Dougherty, Iowa
Current Conditions -  °F | °C
As of 11:02 PM on Thursday 23 Oct 2014 (Local Time) from KMCW Reporting Station
Haze Haze  
Wind Chill: 40°   Ceiling: Unl
Heat Index: 44°   Visibility: 3mi
Dew Point: 44°   Wind: 8mph
Humidity: 100%   Direction: 180°S
Pressure: 30.03"   Gusts: NA
Location:  42.92°N, 93.04°W
Report Text: KMCW 240402Z AUTO 18007KT 3SM BR CLR 07/07 A3003 RMK AO2 T00670067
Loading
Personal Weather Stations






























Interactive Weather Map
Tropical Storm Tracking
New forecast layout! Learn more

10-Day Weather Forecast

Advertisements
Track Severe Weather on mobile